Time;durP1;ratioP1;P1;durP2;ratioP2;P2;SDS_P1;SDS_P2;PMS_P1;PMS_P2;Temp;Humidity;BMP_temperature;BMP_pressure;BME280_temperature;BME280_humidity;BME280_pressure;Samples;Min_cycle;Max_cycle;Signal;HPM_P1;HPM_P2
2024/01/30 00:00:05;;;;;;;1.55;1.10;;;;;;;;;;1039043;28;20631;-77
2024/01/30 00:00:35;;;;;;;1.77;1.67;;;;;;;;;;1039466;28;20112;-77
2024/01/30 00:01:06;;;;;;;1.95;1.58;;;;;;;;;;1039930;28;20025;-77
2024/01/30 00:01:36;;;;;;;2.40;2.03;;;;;;;;;;1039905;28;20024;-77
2024/01/30 00:02:07;;;;;;;4.53;4.10;;;;;;;;;;1037846;28;20021;-77
2024/01/30 00:02:37;;;;;;;1.75;1.65;;;;;;;;;;1037712;28;20026;-77
2024/01/30 00:03:08;;;;;;;4.32;2.17;;;;;;;;;;1034963;28;20041;-77
2024/01/30 00:03:38;;;;;;;19.55;1.45;;;;;;;;;;1035765;28;20028;-77
2024/01/30 00:04:09;;;;;;;4.80;1.85;;;;;;;;;;1031705;28;20038;-77
2024/01/30 00:04:39;;;;;;;5.35;3.33;;;;;;;;;;1034807;28;20026;-77
2024/01/30 00:05:10;;;;;;;2.13;1.92;;;;;;;;;;1035275;28;20034;-77
2024/01/30 00:05:41;;;;;;;8.85;1.98;;;;;;;;;;1031632;28;20018;-77
2024/01/30 00:06:12;;;;;;;0.85;0.85;;;;;;;;;;1034460;28;20033;-77
2024/01/30 00:06:42;;;;;;;1.92;1.70;;;;;;;;;;1033830;28;20668;-77
2024/01/30 00:07:13;;;;;;;3.35;2.78;;;;;;;;;;1038208;28;20022;-77
2024/01/30 00:07:43;;;;;;;2.55;2.45;;;;;;;;;;1039048;28;20021;-77
2024/01/30 00:08:14;;;;;;;4.38;2.42;;;;;;;;;;1038761;28;20029;-77
2024/01/30 00:08:46;;;;;;;9.40;3.28;;;;;;;;;;1039494;28;20068;-77
2024/01/30 00:09:17;;;;;;;2.45;2.25;;;;;;;;;;1039756;28;20045;-77
2024/01/30 00:09:48;;;;;;;8.13;4.45;;;;;;;;;;1037766;28;20489;-77
2024/01/30 00:10:18;;;;;;;3.10;2.85;;;;;;;;;;1037941;28;20102;-77
2024/01/30 00:10:49;;;;;;;5.53;4.20;;;;;;;;;;1037437;28;20029;-77
2024/01/30 00:11:19;;;;;;;1.50;1.40;;;;;;;;;;1038124;28;20517;-77
2024/01/30 00:11:50;;;;;;;3.55;3.25;;;;;;;;;;1037638;28;20153;-77
2024/01/30 00:12:21;;;;;;;3.08;2.03;;;;;;;;;;1038078;28;20026;-77
2024/01/30 00:12:52;;;;;;;3.47;2.83;;;;;;;;;;1037299;28;20459;-77
2024/01/30 00:13:23;;;;;;;3.10;2.88;;;;;;;;;;1038817;28;20040;-77
2024/01/30 00:13:54;;;;;;;3.30;2.65;;;;;;;;;;1038906;28;20111;-77
2024/01/30 00:14:25;;;;;;;4.32;1.90;;;;;;;;;;1039432;28;20025;-77
2024/01/30 00:14:55;;;;;;;2.47;2.00;;;;;;;;;;1034301;28;20022;-77
2024/01/30 00:15:26;;;;;;;3.72;2.47;;;;;;;;;;1029273;28;20573;-77
2024/01/30 00:15:56;;;;;;;2.15;1.77;;;;;;;;;;1029422;28;20109;-77
2024/01/30 00:16:28;;;;;;;3.42;2.25;;;;;;;;;;1028900;28;20026;-77
2024/01/30 00:16:58;;;;;;;3.05;2.10;;;;;;;;;;1029888;28;20474;-77
2024/01/30 00:17:29;;;;;;;2.40;2.22;;;;;;;;;;1034804;28;20045;-77
2024/01/30 00:17:59;;;;;;;4.78;2.35;;;;;;;;;;1033116;28;20026;-77
2024/01/30 00:18:30;;;;;;;2.20;2.10;;;;;;;;;;1033701;28;20175;-77
2024/01/30 00:19:02;;;;;;;2.58;1.23;;;;;;;;;;1032891;28;20054;-77
2024/01/30 00:19:32;;;;;;;0.80;0.80;;;;;;;;;;1029653;28;20022;-77
2024/01/30 00:20:05;;;;;;;5.78;3.30;;;;;;;;;;1036012;23;20026;-76
2024/01/30 00:20:35;;;;;;;3.88;2.47;;;;;;;;;;1033042;28;20038;-77
2024/01/30 00:21:06;;;;;;;3.55;3.25;;;;;;;;;;1034172;28;20042;-77
2024/01/30 00:21:36;;;;;;;2.28;2.08;;;;;;;;;;1035013;28;20064;-77
2024/01/30 00:22:07;;;;;;;2.88;2.53;;;;;;;;;;1035329;28;20025;-77
2024/01/30 00:22:38;;;;;;;2.67;2.15;;;;;;;;;;1031103;28;20029;-77
2024/01/30 00:23:08;;;;;;;2.47;1.45;;;;;;;;;;1031719;28;20037;-77
2024/01/30 00:23:39;;;;;;;3.83;2.42;;;;;;;;;;1031689;28;20121;-77
2024/01/30 00:24:09;;;;;;;1.83;1.73;;;;;;;;;;1031649;28;20026;-77
2024/01/30 00:24:40;;;;;;;1.48;1.33;;;;;;;;;;1031112;28;20022;-77
2024/01/30 00:25:10;;;;;;;2.08;1.98;;;;;;;;;;1031600;28;20026;-77
2024/01/30 00:25:41;;;;;;;2.00;1.83;;;;;;;;;;1031481;28;20057;-77
2024/01/30 00:26:11;;;;;;;2.25;1.42;;;;;;;;;;1027645;28;20498;-77
2024/01/30 00:26:42;;;;;;;4.28;1.85;;;;;;;;;;1031067;28;20538;-77
2024/01/30 00:27:12;;;;;;;1.98;1.77;;;;;;;;;;1031952;28;20037;-77
2024/01/30 00:27:43;;;;;;;2.53;2.33;;;;;;;;;;1031688;28;20029;-77
2024/01/30 00:28:13;;;;;;;10.18;5.53;;;;;;;;;;1027746;28;20029;-77
2024/01/30 00:28:44;;;;;;;3.10;2.80;;;;;;;;;;1027258;28;20451;-77
2024/01/30 00:29:19;;;;;;;3.28;2.90;;;;;;;;;;1036565;23;20530;-77
2024/01/30 00:29:49;;;;;;;1.50;1.40;;;;;;;;;;1036215;23;20057;-77
2024/01/30 00:30:20;;;;;;;3.38;3.08;;;;;;;;;;1029915;28;20125;-77
2024/01/30 00:30:51;;;;;;;2.22;1.48;;;;;;;;;;1033596;28;20057;-77
2024/01/30 00:31:21;;;;;;;11.98;2.03;;;;;;;;;;1035122;28;20429;-77
2024/01/30 00:31:52;;;;;;;9.85;3.75;;;;;;;;;;1034120;28;20487;-77
2024/01/30 00:32:23;;;;;;;4.03;3.30;;;;;;;;;;1031906;28;20073;-77
2024/01/30 00:32:54;;;;;;;3.13;2.20;;;;;;;;;;1030221;28;20037;-77
2024/01/30 00:33:24;;;;;;;2.55;1.95;;;;;;;;;;1023605;29;20171;-77
2024/01/30 00:33:55;;;;;;;6.10;2.55;;;;;;;;;;1023828;28;20601;-77
2024/01/30 00:34:25;;;;;;;2.33;2.00;;;;;;;;;;1026778;28;20019;-77
2024/01/30 00:34:56;;;;;;;11.85;3.90;;;;;;;;;;1029655;28;20031;-77
2024/01/30 00:35:27;;;;;;;2.75;2.55;;;;;;;;;;1030205;28;20030;-77
2024/01/30 00:35:57;;;;;;;2.63;1.63;;;;;;;;;;1029717;28;20037;-77
2024/01/30 00:36:30;;;;;;;2.53;2.33;;;;;;;;;;1033114;23;20023;-77
2024/01/30 00:37:00;;;;;;;5.32;2.03;;;;;;;;;;1025686;28;20026;-77
2024/01/30 00:37:31;;;;;;;0.75;0.75;;;;;;;;;;1027528;28;20026;-78
2024/01/30 00:38:02;;;;;;;2.58;2.10;;;;;;;;;;1027988;28;20163;-77
2024/01/30 00:38:32;;;;;;;2.78;2.20;;;;;;;;;;1029438;28;20062;-77
2024/01/30 00:39:06;;;;;;;4.72;3.70;;;;;;;;;;1029041;28;20149;-77
2024/01/30 00:39:36;;;;;;;5.65;2.28;;;;;;;;;;1025222;28;20582;-77
2024/01/30 00:40:07;;;;;;;2.78;2.53;;;;;;;;;;1023991;28;20090;-77
2024/01/30 00:40:38;;;;;;;7.03;3.25;;;;;;;;;;1025939;28;20113;-77
2024/01/30 00:41:09;;;;;;;11.25;6.38;;;;;;;;;;1025905;28;20492;-77
2024/01/30 00:41:39;;;;;;;3.75;3.40;;;;;;;;;;1029443;28;20025;-77
2024/01/30 00:42:09;;;;;;;3.67;2.58;;;;;;;;;;1030486;28;20506;-77
2024/01/30 00:42:40;;;;;;;10.23;1.67;;;;;;;;;;1031081;28;20022;-77
2024/01/30 00:43:11;;;;;;;2.75;2.53;;;;;;;;;;1026513;28;20023;-77
2024/01/30 00:43:41;;;;;;;4.60;3.00;;;;;;;;;;1025388;28;20026;-77
2024/01/30 00:44:11;;;;;;;3.92;3.47;;;;;;;;;;1025805;28;20022;-77
2024/01/30 00:44:42;;;;;;;6.22;4.43;;;;;;;;;;1025017;28;20031;-77
2024/01/30 00:45:16;;;;;;;2.80;2.13;;;;;;;;;;1025671;28;20026;-77
2024/01/30 00:45:46;;;;;;;6.07;3.20;;;;;;;;;;1025770;28;20026;-78
2024/01/30 00:46:17;;;;;;;4.22;3.20;;;;;;;;;;1026137;28;20053;-79
2024/01/30 00:46:47;;;;;;;11.68;2.38;;;;;;;;;;1027911;28;20434;-79
2024/01/30 00:47:18;;;;;;;1.60;1.50;;;;;;;;;;1031767;28;20026;-77
2024/01/30 00:47:48;;;;;;;2.60;2.40;;;;;;;;;;1025942;28;20023;-77
2024/01/30 00:48:19;;;;;;;7.00;4.47;;;;;;;;;;1025434;28;20122;-77
2024/01/30 00:48:49;;;;;;;4.90;3.47;;;;;;;;;;1025299;28;20027;-77
2024/01/30 00:49:20;;;;;;;1.33;1.27;;;;;;;;;;1025900;28;20523;-77
2024/01/30 00:49:50;;;;;;;4.40;4.00;;;;;;;;;;1031486;28;20387;-77
2024/01/30 00:50:21;;;;;;;3.15;1.08;;;;;;;;;;1032015;28;20501;-77
2024/01/30 00:50:51;;;;;;;1.95;1.80;;;;;;;;;;1029625;28;20065;-77
2024/01/30 00:51:22;;;;;;;5.32;3.40;;;;;;;;;;1025776;28;20026;-77
2024/01/30 00:51:52;;;;;;;3.65;1.70;;;;;;;;;;1025386;28;20440;-77
2024/01/30 00:52:22;;;;;;;3.85;2.83;;;;;;;;;;1021805;29;20039;-77
2024/01/30 00:52:53;;;;;;;2.33;2.17;;;;;;;;;;1021457;29;20028;-78
2024/01/30 00:53:23;;;;;;;11.75;5.28;;;;;;;;;;1025849;28;20076;-77
2024/01/30 00:53:54;;;;;;;2.65;2.03;;;;;;;;;;1025807;28;20105;-77
2024/01/30 00:54:24;;;;;;;0.90;0.90;;;;;;;;;;1029814;28;20534;-77
2024/01/30 00:54:55;;;;;;;2.50;2.30;;;;;;;;;;1026569;28;20397;-77
2024/01/30 00:55:25;;;;;;;0.98;0.98;;;;;;;;;;1027236;28;20019;-77
2024/01/30 00:55:56;;;;;;;3.30;2.20;;;;;;;;;;1027333;28;20030;-79
2024/01/30 00:56:26;;;;;;;2.50;1.95;;;;;;;;;;1027360;28;20474;-79
2024/01/30 00:56:57;;;;;;;1.70;1.58;;;;;;;;;;1027662;28;20027;-78
2024/01/30 00:57:27;;;;;;;1.45;1.35;;;;;;;;;;1027860;28;20066;-78
2024/01/30 00:57:58;;;;;;;1.92;1.58;;;;;;;;;;1027548;28;20027;-78
2024/01/30 00:58:28;;;;;;;2.60;2.25;;;;;;;;;;1027342;28;20082;-78
2024/01/30 00:58:59;;;;;;;4.07;3.70;;;;;;;;;;1026047;28;20463;-78
2024/01/30 00:59:29;;;;;;;2.90;2.47;;;;;;;;;;1023445;29;20109;-78
2024/01/30 01:00:00;;;;;;;1.70;1.63;;;;;;;;;;1023401;29;20015;-78
2024/01/30 01:00:31;;;;;;;2.28;2.08;;;;;;;;;;1023309;28;20024;-77
2024/01/30 01:01:02;;;;;;;2.08;1.98;;;;;;;;;;1027537;28;20475;-77
2024/01/30 01:01:33;;;;;;;0.57;0.57;;;;;;;;;;1031281;28;20018;-77
2024/01/30 01:02:04;;;;;;;4.10;2.60;;;;;;;;;;1031557;28;20026;-77
2024/01/30 01:02:35;;;;;;;0.57;0.52;;;;;;;;;;1027426;28;20019;-77
2024/01/30 01:03:05;;;;;;;0.95;0.95;;;;;;;;;;1027622;28;20034;-77
2024/01/30 01:03:36;;;;;;;1.02;1.02;;;;;;;;;;1025407;28;20034;-77
2024/01/30 01:04:07;;;;;;;2.83;2.63;;;;;;;;;;1024893;28;20057;-77
2024/01/30 01:04:37;;;;;;;1.52;1.42;;;;;;;;;;1030212;28;20502;-77
2024/01/30 01:05:08;;;;;;;1.55;1.45;;;;;;;;;;1025255;28;20026;-77
2024/01/30 01:05:38;;;;;;;5.72;4.15;;;;;;;;;;1025436;28;20023;-78
2024/01/30 01:06:09;;;;;;;3.22;2.13;;;;;;;;;;1025623;28;20714;-78
2024/01/30 01:06:42;;;;;;;2.22;1.92;;;;;;;;;;1022850;28;20026;-77
2024/01/30 01:07:13;;;;;;;0.30;0.30;;;;;;;;;;1023538;29;20110;-77
2024/01/30 01:07:43;;;;;;;4.95;1.90;;;;;;;;;;1023737;28;20023;-77
2024/01/30 01:08:14;;;;;;;0.95;0.95;;;;;;;;;;1024049;28;20050;-77
2024/01/30 01:08:45;;;;;;;1.48;1.40;;;;;;;;;;1027426;28;20018;-77
2024/01/30 01:09:15;;;;;;;0.57;0.57;;;;;;;;;;1031436;28;20125;-77
2024/01/30 01:09:46;;;;;;;1.55;1.45;;;;;;;;;;1031237;28;20018;-77
2024/01/30 01:10:17;;;;;;;0.75;0.75;;;;;;;;;;1031634;28;20026;-77
2024/01/30 01:10:47;;;;;;;2.92;2.72;;;;;;;;;;1025330;28;20010;-77
2024/01/30 01:11:18;;;;;;;1.40;1.30;;;;;;;;;;1021838;29;20029;-77
2024/01/30 01:11:48;;;;;;;1.65;1.20;;;;;;;;;;1021431;29;20077;-78
2024/01/30 01:12:19;;;;;;;1.42;1.33;;;;;;;;;;1023053;29;20042;-77
2024/01/30 01:12:50;;;;;;;3.70;3.03;;;;;;;;;;1027144;28;20706;-77
2024/01/30 01:13:20;;;;;;;2.95;1.77;;;;;;;;;;1027633;28;20026;-77
2024/01/30 01:13:51;;;;;;;0.65;0.65;;;;;;;;;;1027203;28;20015;-77
2024/01/30 01:14:21;;;;;;;1.45;1.35;;;;;;;;;;1027630;28;20026;-77
2024/01/30 01:14:51;;;;;;;2.63;1.65;;;;;;;;;;1026984;28;20034;-77
2024/01/30 01:15:22;;;;;;;3.13;2.40;;;;;;;;;;1029313;28;20037;-78
2024/01/30 01:15:52;;;;;;;2.05;1.13;;;;;;;;;;1030702;28;20018;-78
2024/01/30 01:16:23;;;;;;;5.32;3.35;;;;;;;;;;1036243;23;20030;-77
2024/01/30 01:16:53;;;;;;;0.88;0.88;;;;;;;;;;1029325;28;20038;-78
2024/01/30 01:17:24;;;;;;;3.03;2.83;;;;;;;;;;1029512;28;20118;-78
2024/01/30 01:17:54;;;;;;;1.65;1.08;;;;;;;;;;1029607;28;20133;-78
2024/01/30 01:18:25;;;;;;;7.40;3.50;;;;;;;;;;1029570;28;20027;-78
2024/01/30 01:18:55;;;;;;;1.67;1.58;;;;;;;;;;1026747;28;20038;-78
2024/01/30 01:19:26;;;;;;;1.67;1.58;;;;;;;;;;1027253;28;20486;-78
2024/01/30 01:19:57;;;;;;;12.20;2.92;;;;;;;;;;1027544;28;20030;-78
2024/01/30 01:20:28;;;;;;;3.45;2.40;;;;;;;;;;1044204;23;20094;-77
2024/01/30 01:21:00;;;;;;;1.85;1.02;;;;;;;;;;1033280;28;20053;-79
2024/01/30 01:21:30;;;;;;;1.73;1.63;;;;;;;;;;1033476;28;20029;-78
2024/01/30 01:22:01;;;;;;;4.72;2.70;;;;;;;;;;1037372;28;20021;-78
2024/01/30 01:22:32;;;;;;;7.22;1.85;;;;;;;;;;1033144;28;20022;-77
2024/01/30 01:23:02;;;;;;;1.83;1.08;;;;;;;;;;1033428;28;20390;-77
2024/01/30 01:23:33;;;;;;;4.57;1.77;;;;;;;;;;1031109;28;20031;-79
2024/01/30 01:24:03;;;;;;;12.30;6.65;;;;;;;;;;1059428;23;20054;-77
2024/01/30 01:24:35;;;;;;;4.20;2.85;;;;;;;;;;1030401;28;20037;-77
2024/01/30 01:25:10;;;;;;;1.83;1.70;;;;;;;;;;1026333;28;20027;-77
2024/01/30 01:25:40;;;;;;;2.10;1.90;;;;;;;;;;1026944;28;20027;-78
2024/01/30 01:26:11;;;;;;;3.25;2.40;;;;;;;;;;1027411;28;20022;-78
2024/01/30 01:26:41;;;;;;;1.30;1.23;;;;;;;;;;1027291;28;20123;-78
2024/01/30 01:27:12;;;;;;;4.95;3.97;;;;;;;;;;1024878;28;20165;-78
2024/01/30 01:27:44;;;;;;;1.55;1.15;;;;;;;;;;1023608;28;20030;-78
2024/01/30 01:28:15;;;;;;;1.85;1.75;;;;;;;;;;1020435;29;20531;-78
2024/01/30 01:28:45;;;;;;;8.60;3.35;;;;;;;;;;1018744;28;20039;-78
2024/01/30 01:29:16;;;;;;;8.80;5.80;;;;;;;;;;1023482;28;20027;-78
2024/01/30 01:29:47;;;;;;;4.65;3.25;;;;;;;;;;1025481;28;20031;-78
2024/01/30 01:30:21;;;;;;;2.92;2.03;;;;;;;;;;1030261;28;20053;-78
2024/01/30 01:30:52;;;;;;;4.20;2.65;;;;;;;;;;1025381;28;20447;-77
2024/01/30 01:31:24;;;;;;;4.00;3.70;;;;;;;;;;1020800;28;20083;-77
2024/01/30 01:31:55;;;;;;;2.10;1.45;;;;;;;;;;1025226;28;20034;-77
2024/01/30 01:32:27;;;;;;;3.65;3.33;;;;;;;;;;1024380;28;20097;-77
2024/01/30 01:33:00;;;;;;;0.95;0.95;;;;;;;;;;1027227;28;20027;-78
2024/01/30 01:33:36;;;;;;;7.57;4.47;;;;;;;;;;1027154;28;20022;-78
2024/01/30 01:34:07;;;;;;;3.30;3.08;;;;;;;;;;1028043;28;20165;-78
2024/01/30 01:34:38;;;;;;;11.10;4.53;;;;;;;;;;1027370;28;20022;-78
2024/01/30 01:35:08;;;;;;;4.63;3.20;;;;;;;;;;1024809;28;20900;-78
2024/01/30 01:35:39;;;;;;;3.78;1.70;;;;;;;;;;1022894;28;20114;-78
2024/01/30 01:36:10;;;;;;;5.82;2.22;;;;;;;;;;1020689;28;20031;-78
2024/01/30 01:36:42;;;;;;;2.30;2.20;;;;;;;;;;1025249;28;20057;-78
2024/01/30 01:37:12;;;;;;;4.03;1.88;;;;;;;;;;1029834;28;20042;-78
2024/01/30 01:37:43;;;;;;;0.32;0.32;;;;;;;;;;1032918;28;20476;-78
2024/01/30 01:38:13;;;;;;;4.03;3.40;;;;;;;;;;1026063;28;20405;-78
2024/01/30 01:38:44;;;;;;;2.60;1.90;;;;;;;;;;1026597;28;20180;-78
2024/01/30 01:39:15;;;;;;;8.50;2.85;;;;;;;;;;1027331;28;20023;-78
2024/01/30 01:40:18;;;;;;;6.68;1.42;;;;;;;;;;1039169;28;20100;-78
2024/01/30 01:40:48;;;;;;;3.03;2.72;;;;;;;;;;1043843;28;20111;-78
2024/01/30 01:41:19;;;;;;;3.10;2.13;;;;;;;;;;1041841;28;20029;-78
2024/01/30 01:41:49;;;;;;;3.13;2.42;;;;;;;;;;1040892;28;20079;-78
2024/01/30 01:42:20;;;;;;;7.30;4.00;;;;;;;;;;1039332;28;20025;-78
2024/01/30 01:42:53;;;;;;;2.35;1.98;;;;;;;;;;1039890;28;20025;-78
2024/01/30 01:43:24;;;;;;;2.20;1.70;;;;;;;;;;1034205;28;20053;-78
2024/01/30 01:43:54;;;;;;;3.63;3.28;;;;;;;;;;1038564;28;20401;-78
2024/01/30 01:44:25;;;;;;;7.78;3.08;;;;;;;;;;1033070;28;20030;-78
2024/01/30 01:44:56;;;;;;;1.52;1.42;;;;;;;;;;1032134;28;20010;-78
2024/01/30 01:45:26;;;;;;;5.47;2.58;;;;;;;;;;1031177;28;20765;-78
2024/01/30 01:45:57;;;;;;;6.07;3.42;;;;;;;;;;1027595;28;20536;-78
2024/01/30 01:46:29;;;;;;;0.77;0.75;;;;;;;;;;1025024;28;20441;-78
2024/01/30 01:47:00;;;;;;;3.72;1.30;;;;;;;;;;1033815;23;20556;-78
2024/01/30 01:47:31;;;;;;;1.70;1.60;;;;;;;;;;1033865;28;20519;-78
2024/01/30 01:48:01;;;;;;;4.03;3.47;;;;;;;;;;1033109;28;20026;-78
2024/01/30 01:48:32;;;;;;;1.45;1.35;;;;;;;;;;1033833;28;20038;-78
2024/01/30 01:49:02;;;;;;;9.98;3.38;;;;;;;;;;1037780;28;20695;-80
2024/01/30 01:49:33;;;;;;;0.90;0.90;;;;;;;;;;1037465;28;20513;-79
2024/01/30 01:50:04;;;;;;;6.63;4.63;;;;;;;;;;1034874;28;20022;-78
2024/01/30 01:50:36;;;;;;;8.85;4.10;;;;;;;;;;1034931;28;20634;-78
2024/01/30 01:51:07;;;;;;;12.50;3.83;;;;;;;;;;1034661;28;20021;-79
2024/01/30 01:51:38;;;;;;;4.30;3.60;;;;;;;;;;1037278;28;20021;-79
2024/01/30 01:52:09;;;;;;;2.88;1.75;;;;;;;;;;1034942;28;20378;-79
2024/01/30 01:52:41;;;;;;;7.30;3.03;;;;;;;;;;1035479;28;20101;-79
2024/01/30 01:53:12;;;;;;;7.00;4.40;;;;;;;;;;1031031;28;20027;-79
2024/01/30 01:53:42;;;;;;;12.88;5.18;;;;;;;;;;1028148;28;20105;-78
2024/01/30 01:54:14;;;;;;;2.60;2.38;;;;;;;;;;1031449;28;20029;-78
2024/01/30 01:54:45;;;;;;;16.63;5.63;;;;;;;;;;1033277;28;20030;-78
2024/01/30 01:55:16;;;;;;;9.30;3.95;;;;;;;;;;1044172;23;20021;-78
2024/01/30 01:55:47;;;;;;;11.23;4.28;;;;;;;;;;1026538;28;20030;-78
2024/01/30 01:56:18;;;;;;;4.97;4.07;;;;;;;;;;1025300;28;21356;-78
2024/01/30 01:56:48;;;;;;;2.17;1.63;;;;;;;;;;1026625;28;20688;-78
2024/01/30 01:57:19;;;;;;;11.80;3.15;;;;;;;;;;1036843;23;20026;-78
2024/01/30 01:57:50;;;;;;;6.57;2.80;;;;;;;;;;1042497;23;20022;-78
2024/01/30 01:58:22;;;;;;;6.28;5.65;;;;;;;;;;1036895;28;20037;-78
2024/01/30 01:58:54;;;;;;;4.00;3.58;;;;;;;;;;1035978;28;20045;-78
2024/01/30 01:59:24;;;;;;;9.20;5.47;;;;;;;;;;1037512;28;20026;-78
2024/01/30 01:59:55;;;;;;;17.55;6.65;;;;;;;;;;1037827;28;20053;-78
2024/01/30 02:00:26;;;;;;;4.60;4.18;;;;;;;;;;1038991;28;20117;-78
2024/01/30 02:00:58;;;;;;;7.13;5.10;;;;;;;;;;1035126;28;20245;-78
2024/01/30 02:01:29;;;;;;;7.72;3.00;;;;;;;;;;1034544;28;20025;-80
2024/01/30 02:02:00;;;;;;;6.68;3.63;;;;;;;;;;1035219;28;20022;-79
2024/01/30 02:02:34;;;;;;;4.15;1.67;;;;;;;;;;1034504;28;20030;-79
2024/01/30 02:03:05;;;;;;;10.32;4.57;;;;;;;;;;1038104;28;20021;-79
2024/01/30 02:03:36;;;;;;;4.35;2.95;;;;;;;;;;1039299;28;20025;-79
2024/01/30 02:04:07;;;;;;;5.47;3.97;;;;;;;;;;1038296;28;20025;-79
2024/01/30 02:04:38;;;;;;;2.28;1.98;;;;;;;;;;1029453;28;20109;-79
2024/01/30 02:05:09;;;;;;;0.95;0.95;;;;;;;;;;1030915;28;20019;-79
2024/01/30 02:05:41;;;;;;;7.10;1.20;;;;;;;;;;1036878;23;20013;-78
2024/01/30 02:06:12;;;;;;;7.40;2.22;;;;;;;;;;1032904;28;20363;-78
2024/01/30 02:06:43;;;;;;;2.83;1.05;;;;;;;;;;1033979;28;20049;-78
2024/01/30 02:07:13;;;;;;;4.30;2.33;;;;;;;;;;1035923;28;20022;-78
2024/01/30 02:07:44;;;;;;;4.75;3.47;;;;;;;;;;1036609;28;20116;-78
2024/01/30 02:08:15;;;;;;;3.58;2.17;;;;;;;;;;1033934;28;20029;-78
2024/01/30 02:08:45;;;;;;;1.70;1.60;;;;;;;;;;1037343;28;20026;-78
2024/01/30 02:09:16;;;;;;;4.93;2.70;;;;;;;;;;1036469;28;20026;-78
2024/01/30 02:09:47;;;;;;;1.77;1.67;;;;;;;;;;1038362;28;20022;-78
2024/01/30 02:10:17;;;;;;;1.67;1.58;;;;;;;;;;1034147;28;20055;-78
2024/01/30 02:10:48;;;;;;;4.32;3.83;;;;;;;;;;1033787;28;20458;-78
2024/01/30 02:11:19;;;;;;;1.75;1.65;;;;;;;;;;1030891;28;20022;-78
2024/01/30 02:11:50;;;;;;;4.65;3.13;;;;;;;;;;1030394;28;20030;-78
2024/01/30 02:12:21;;;;;;;3.53;3.10;;;;;;;;;;1038969;28;20120;-78
2024/01/30 02:12:51;;;;;;;6.60;3.97;;;;;;;;;;1035762;28;20014;-79
2024/01/30 02:13:22;;;;;;;4.93;3.58;;;;;;;;;;1041069;23;20061;-78
2024/01/30 02:13:52;;;;;;;1.52;1.42;;;;;;;;;;1026561;28;20158;-78
2024/01/30 02:14:23;;;;;;;1.48;1.38;;;;;;;;;;1030927;28;20026;-78
2024/01/30 02:14:55;;;;;;;5.45;3.78;;;;;;;;;;1030818;28;20033;-78
2024/01/30 02:15:25;;;;;;;1.50;1.40;;;;;;;;;;1034277;28;20030;-78
2024/01/30 02:15:57;;;;;;;5.72;3.42;;;;;;;;;;1049220;23;20025;-77
2024/01/30 02:16:27;;;;;;;3.30;1.67;;;;;;;;;;1032479;28;20497;-78
2024/01/30 02:16:58;;;;;;;4.57;2.85;;;;;;;;;;1032822;28;20018;-78
2024/01/30 02:17:28;;;;;;;12.48;3.78;;;;;;;;;;1033013;28;20025;-78
2024/01/30 02:18:00;;;;;;;9.63;2.47;;;;;;;;;;1033698;28;20029;-78
2024/01/30 02:18:31;;;;;;;2.25;2.05;;;;;;;;;;1033512;28;20030;-78
2024/01/30 02:19:02;;;;;;;3.53;3.28;;;;;;;;;;1033281;28;20494;-78
2024/01/30 02:19:32;;;;;;;9.13;2.35;;;;;;;;;;1036294;28;20371;-78
2024/01/30 02:20:05;;;;;;;0.82;0.82;;;;;;;;;;1030407;28;20076;-78
2024/01/30 02:20:36;;;;;;;1.75;0.73;;;;;;;;;;1030411;28;20049;-78
2024/01/30 02:21:06;;;;;;;4.55;2.67;;;;;;;;;;1030543;28;20126;-78
2024/01/30 02:21:37;;;;;;;3.88;2.83;;;;;;;;;;1032576;28;20113;-78
2024/01/30 02:22:08;;;;;;;10.43;2.65;;;;;;;;;;1032069;28;20041;-78
2024/01/30 02:22:39;;;;;;;0.93;0.93;;;;;;;;;;1031499;28;20030;-78
2024/01/30 02:23:10;;;;;;;1.30;1.27;;;;;;;;;;1032041;28;20726;-78
2024/01/30 02:23:41;;;;;;;2.70;2.53;;;;;;;;;;1032378;28;20081;-78
2024/01/30 02:24:11;;;;;;;2.55;1.90;;;;;;;;;;1029917;28;20018;-78
2024/01/30 02:24:42;;;;;;;2.78;2.45;;;;;;;;;;1035708;28;20025;-78
2024/01/30 02:25:12;;;;;;;7.95;3.72;;;;;;;;;;1030113;28;20082;-78
2024/01/30 02:25:46;;;;;;;3.00;1.23;;;;;;;;;;1033898;28;20145;-78
2024/01/30 02:26:16;;;;;;;2.90;2.00;;;;;;;;;;1033365;28;20406;-78
2024/01/30 02:26:47;;;;;;;1.80;1.55;;;;;;;;;;1030880;28;20010;-78
2024/01/30 02:27:17;;;;;;;4.93;2.70;;;;;;;;;;1030596;28;20401;-78
2024/01/30 02:27:48;;;;;;;4.47;3.30;;;;;;;;;;1031537;28;20023;-78
2024/01/30 02:28:19;;;;;;;1.98;1.63;;;;;;;;;;1032193;28;20434;-79
2024/01/30 02:28:49;;;;;;;1.50;1.40;;;;;;;;;;1035681;28;20710;-79
2024/01/30 02:29:20;;;;;;;6.20;3.70;;;;;;;;;;1039095;28;20037;-79
2024/01/30 02:29:51;;;;;;;2.00;1.90;;;;;;;;;;1032265;28;20026;-79
2024/01/30 02:30:21;;;;;;;5.63;4.40;;;;;;;;;;1033132;28;20030;-79
2024/01/30 02:30:52;;;;;;;3.58;2.53;;;;;;;;;;1034279;28;20041;-79
2024/01/30 02:31:24;;;;;;;4.68;3.13;;;;;;;;;;1034320;28;20478;-78
2024/01/30 02:31:54;;;;;;;2.85;2.65;;;;;;;;;;1037673;28;20024;-78
2024/01/30 02:32:25;;;;;;;1.10;1.05;;;;;;;;;;1048673;23;20043;-78
2024/01/30 02:32:55;;;;;;;9.55;3.53;;;;;;;;;;1034004;28;20018;-78
2024/01/30 02:33:26;;;;;;;0.90;0.90;;;;;;;;;;1038954;28;20034;-78
2024/01/30 02:33:56;;;;;;;1.92;1.77;;;;;;;;;;1042214;28;20584;-78
2024/01/30 02:34:26;;;;;;;2.35;2.05;;;;;;;;;;1042299;28;20032;-78
2024/01/30 02:34:57;;;;;;;0.98;0.95;;;;;;;;;;1041407;28;20063;-78
2024/01/30 02:35:27;;;;;;;2.83;2.60;;;;;;;;;;1039372;28;20021;-78
2024/01/30 02:35:58;;;;;;;2.83;2.63;;;;;;;;;;1038487;28;20033;-78
2024/01/30 02:36:29;;;;;;;4.70;2.22;;;;;;;;;;1038925;28;20464;-78
2024/01/30 02:36:59;;;;;;;3.25;2.03;;;;;;;;;;1034980;28;20085;-78
2024/01/30 02:37:30;;;;;;;2.47;2.35;;;;;;;;;;1030966;28;20490;-78
2024/01/30 02:38:00;;;;;;;1.45;1.35;;;;;;;;;;1032048;28;20053;-78
2024/01/30 02:38:31;;;;;;;1.20;0.98;;;;;;;;;;1037317;28;20025;-78
2024/01/30 02:39:01;;;;;;;4.00;1.42;;;;;;;;;;1039172;28;20104;-78
2024/01/30 02:39:32;;;;;;;1.98;1.83;;;;;;;;;;1041705;28;20408;-78
2024/01/30 02:40:02;;;;;;;0.90;0.90;;;;;;;;;;1039567;28;20107;-78
2024/01/30 02:40:33;;;;;;;1.67;1.40;;;;;;;;;;1041068;28;20025;-78
2024/01/30 02:41:03;;;;;;;2.33;2.15;;;;;;;;;;1040696;28;20021;-78
2024/01/30 02:41:34;;;;;;;1.65;1.23;;;;;;;;;;1036420;28;20077;-78
2024/01/30 02:42:05;;;;;;;1.63;1.23;;;;;;;;;;1038403;28;20013;-78
2024/01/30 02:42:35;;;;;;;3.15;2.85;;;;;;;;;;1037337;28;20034;-78
2024/01/30 02:43:06;;;;;;;1.35;1.27;;;;;;;;;;1036921;28;20016;-78
2024/01/30 02:43:36;;;;;;;1.77;1.67;;;;;;;;;;1041974;28;20067;-78
2024/01/30 02:44:07;;;;;;;0.68;0.68;;;;;;;;;;1041203;28;20139;-78
2024/01/30 02:44:37;;;;;;;2.88;1.90;;;;;;;;;;1041286;28;20028;-78
2024/01/30 02:45:08;;;;;;;3.20;1.60;;;;;;;;;;1036889;28;20053;-78
2024/01/30 02:45:39;;;;;;;0.85;0.85;;;;;;;;;;1036004;28;20033;-78
2024/01/30 02:46:09;;;;;;;1.63;1.48;;;;;;;;;;1036999;28;20822;-78
2024/01/30 02:46:40;;;;;;;0.88;0.88;;;;;;;;;;1036961;28;20025;-78
2024/01/30 02:47:10;;;;;;;2.17;2.00;;;;;;;;;;1037368;28;20029;-78
2024/01/30 02:47:41;;;;;;;3.13;2.55;;;;;;;;;;1035959;28;20049;-78
2024/01/30 02:48:12;;;;;;;9.38;2.90;;;;;;;;;;1035949;28;20013;-78
2024/01/30 02:48:42;;;;;;;0.85;0.85;;;;;;;;;;1033705;28;20026;-78
2024/01/30 02:49:13;;;;;;;2.25;2.00;;;;;;;;;;1032148;28;20030;-78
2024/01/30 02:49:43;;;;;;;2.42;1.73;;;;;;;;;;1029732;28;20022;-78
2024/01/30 02:50:14;;;;;;;1.48;1.10;;;;;;;;;;1030307;28;20037;-78
2024/01/30 02:50:46;;;;;;;1.88;1.73;;;;;;;;;;1033325;28;20325;-78
2024/01/30 02:51:17;;;;;;;4.72;3.10;;;;;;;;;;1030280;28;20026;-78
2024/01/30 02:51:47;;;;;;;5.28;2.08;;;;;;;;;;1033495;28;20096;-78
2024/01/30 02:52:19;;;;;;;3.70;3.50;;;;;;;;;;1032246;28;20097;-78
2024/01/30 02:52:49;;;;;;;1.25;1.25;;;;;;;;;;1033961;28;20379;-78
2024/01/30 02:53:20;;;;;;;1.02;1.02;;;;;;;;;;1032888;23;20073;-77
2024/01/30 02:53:50;;;;;;;2.15;1.95;;;;;;;;;;1030053;28;20023;-77
2024/01/30 02:54:21;;;;;;;1.55;1.45;;;;;;;;;;1031372;28;20088;-79
2024/01/30 02:54:51;;;;;;;1.70;1.60;;;;;;;;;;1032961;28;20117;-79
2024/01/30 02:55:22;;;;;;;1.58;1.48;;;;;;;;;;1031802;28;20088;-79
2024/01/30 02:55:52;;;;;;;2.70;1.55;;;;;;;;;;1029399;28;20019;-80
2024/01/30 02:56:23;;;;;;;2.65;1.55;;;;;;;;;;1028517;28;20019;-80
2024/01/30 02:56:54;;;;;;;0.93;0.93;;;;;;;;;;1026864;28;20027;-80
2024/01/30 02:57:25;;;;;;;2.13;1.55;;;;;;;;;;1031147;28;20194;-79
2024/01/30 02:57:55;;;;;;;5.38;1.90;;;;;;;;;;1030591;28;20125;-79
2024/01/30 02:58:26;;;;;;;1.85;1.48;;;;;;;;;;1032456;28;20014;-77
2024/01/30 02:58:56;;;;;;;2.47;1.50;;;;;;;;;;1032404;28;20033;-79
2024/01/30 02:59:27;;;;;;;1.65;1.58;;;;;;;;;;1029608;28;20031;-78
2024/01/30 02:59:57;;;;;;;3.88;3.58;;;;;;;;;;1032393;28;20026;-78
2024/01/30 03:00:28;;;;;;;7.10;3.75;;;;;;;;;;1027446;28;20022;-78
2024/01/30 03:00:59;;;;;;;5.03;1.38;;;;;;;;;;1029434;28;20026;-78
2024/01/30 03:01:29;;;;;;;4.28;2.22;;;;;;;;;;1032116;28;20768;-79
2024/01/30 03:02:00;;;;;;;5.63;3.10;;;;;;;;;;1033229;28;20108;-79
2024/01/30 03:02:31;;;;;;;2.97;2.78;;;;;;;;;;1033175;28;20026;-79
2024/01/30 03:03:01;;;;;;;3.15;2.45;;;;;;;;;;1032622;28;20050;-79
2024/01/30 03:03:34;;;;;;;3.53;2.22;;;;;;;;;;1028208;28;20536;-79
2024/01/30 03:04:04;;;;;;;0.90;0.85;;;;;;;;;;1030082;28;20082;-79
2024/01/30 03:04:34;;;;;;;10.98;4.65;;;;;;;;;;1033483;28;20033;-78
2024/01/30 03:05:06;;;;;;;1.67;1.58;;;;;;;;;;1029090;28;20033;-78